CheckWX is a tool to help pilots better visualize weather data.  It is not intended as a substitute for an official pre-flight weather briefing.

22:12:45 UTC

OERR METAR
Arar Domestic Airport
Arar, Saudi Arabia
Current

1 hour ago

OERR 202100Z 33005KT CAVOK 32/10 Q1006 NOSIG
Observed
Jul-20 @ 21:00 UTC
Wind
  • 330° at 5 KTS
Visibility
10,000+ meters
Flight Rules
VFR
Cloud Levels
  • Clear skies
Temperature
32°C / 90°F
Dewpoint
10°C / 50°F
Humidity
26%
Altimeter
29.7" Hg
Pressure
1005.92 hPa
Previous

2 hours ago

OERR 202000Z 28006KT CAVOK 32/10 Q1007 NOSIG
Observed
Jul-20 @ 20:00 UTC
Wind
  • 280° at 6 KTS
Visibility
10,000+ meters
Flight Rules
VFR
Cloud Levels
  • Clear skies
Temperature
32°C / 90°F
Dewpoint
10°C / 50°F
Humidity
26%
Altimeter
29.73" Hg
Pressure
1006.92 hPa
Previous

3 hours ago

OERR 201900Z 34002KT CAVOK 33/11 Q1007 NOSIG
Observed
Jul-20 @ 19:00 UTC
Wind
  • 340° at 2 KTS
Visibility
10,000+ meters
Flight Rules
VFR
Cloud Levels
  • Clear skies
Temperature
33°C / 91°F
Dewpoint
11°C / 52°F
Humidity
26%
Altimeter
29.73" Hg
Pressure
1006.92 hPa